Time;durP1;ratioP1;P1;durP2;ratioP2;P2;SDS_P1;SDS_P2;PMS_P1;PMS_P2;Temp;Humidity;BMP_temperature;BMP_pressure;BME280_temperature;BME280_humidity;BME280_pressure;Samples;Min_cycle;Max_cycle;Signal;HPM_P1;HPM_P2
2022/07/20 00:02:07;;;;;;;24.15;12.82;;;;;;;;;;6291422;22;20207;-57
2022/07/20 00:04:34;;;;;;;21.20;12.63;;;;;;;;;;6293331;22;20031;-55
2022/07/20 00:07:00;;;;;;;22.05;12.70;;;;;;;;;;6302576;22;20018;-57
2022/07/20 00:12:12;;;;;;;23.33;14.05;;;;;;;;;;6292443;22;20011;-58
2022/07/20 00:14:39;;;;;;;20.00;12.80;;;;;;;;;;6300253;22;20030;-58
2022/07/20 00:17:05;;;;;;;20.73;13.30;;;;;;;;;;6292325;22;20045;-57
2022/07/20 00:19:32;;;;;;;18.52;12.48;;;;;;;;;;6296547;22;20031;-55
2022/07/20 00:21:59;;;;;;;19.20;12.73;;;;;;;;;;6291171;22;20015;-58
2022/07/20 00:24:25;;;;;;;19.15;13.43;;;;;;;;;;6299221;22;20022;-56
2022/07/20 00:26:53;;;;;;;18.27;13.25;;;;;;;;;;6293790;22;20517;-58
2022/07/20 00:29:20;;;;;;;18.90;12.52;;;;;;;;;;6301050;22;20011;-58
2022/07/20 00:31:46;;;;;;;21.02;12.73;;;;;;;;;;6285877;22;20095;-58
2022/07/20 00:34:13;;;;;;;24.30;14.43;;;;;;;;;;6302728;22;20015;-58
2022/07/20 00:36:39;;;;;;;19.15;13.32;;;;;;;;;;6296000;22;20069;-58
2022/07/20 00:39:06;;;;;;;19.75;13.77;;;;;;;;;;6300505;22;20019;-58
2022/07/20 00:41:33;;;;;;;17.77;13.65;;;;;;;;;;6290446;22;20280;-56
2022/07/20 00:44:05;;;;;;;21.60;13.43;;;;;;;;;;6296497;22;20054;-58
2022/07/20 00:46:33;;;;;;;23.10;14.05;;;;;;;;;;6288092;22;20022;-59
2022/07/20 00:49:00;;;;;;;24.38;13.73;;;;;;;;;;6299728;22;20011;-58
2022/07/20 00:51:27;;;;;;;25.30;14.02;;;;;;;;;;6289941;22;20011;-59
2022/07/20 00:53:54;;;;;;;20.50;13.88;;;;;;;;;;6302169;22;20384;-57
2022/07/20 00:56:22;;;;;;;18.88;12.93;;;;;;;;;;6284773;22;20025;-58
2022/07/20 00:58:48;;;;;;;20.75;13.70;;;;;;;;;;6265401;22;20015;-57
2022/07/20 01:01:17;;;;;;;25.92;13.82;;;;;;;;;;6300077;22;20437;-56
2022/07/20 01:03:44;;;;;;;21.87;14.03;;;;;;;;;;6287690;22;20026;-57
2022/07/20 01:06:10;;;;;;;25.17;13.80;;;;;;;;;;6274974;22;20019;-58
2022/07/20 01:08:37;;;;;;;25.85;12.98;;;;;;;;;;6285581;22;20019;-57
2022/07/20 01:11:04;;;;;;;27.02;13.35;;;;;;;;;;6284634;22;20641;-59
2022/07/20 01:13:31;;;;;;;20.85;12.88;;;;;;;;;;6279765;22;20045;-56
2022/07/20 01:15:57;;;;;;;26.23;13.27;;;;;;;;;;6289020;22;20011;-58
2022/07/20 01:18:25;;;;;;;16.20;12.35;;;;;;;;;;6266655;22;20074;-58
2022/07/20 01:20:52;;;;;;;24.65;13.68;;;;;;;;;;6292756;22;20022;-57
2022/07/20 01:23:20;;;;;;;24.98;12.65;;;;;;;;;;6282865;22;20461;-58
2022/07/20 01:25:46;;;;;;;22.40;13.25;;;;;;;;;;6292232;22;20035;-58
2022/07/20 01:28:14;;;;;;;23.08;13.50;;;;;;;;;;6292070;22;20011;-57
2022/07/20 01:30:41;;;;;;;23.20;14.02;;;;;;;;;;6298676;22;20481;-57
2022/07/20 01:33:07;;;;;;;20.08;13.82;;;;;;;;;;6290592;22;20011;-58
2022/07/20 01:35:34;;;;;;;21.73;12.93;;;;;;;;;;6294728;22;20018;-58
2022/07/20 01:38:00;;;;;;;27.52;14.68;;;;;;;;;;6287988;22;20023;-58
2022/07/20 01:40:28;;;;;;;22.38;12.35;;;;;;;;;;6301170;22;20011;-56
2022/07/20 01:42:55;;;;;;;22.83;14.57;;;;;;;;;;6288039;22;20019;-58
2022/07/20 01:45:21;;;;;;;22.02;13.50;;;;;;;;;;6292250;22;20011;-57
2022/07/20 01:47:48;;;;;;;21.50;13.98;;;;;;;;;;6294670;22;20068;-58
2022/07/20 01:50:15;;;;;;;26.13;14.40;;;;;;;;;;6288122;22;20012;-58
2022/07/20 01:52:42;;;;;;;24.30;13.20;;;;;;;;;;6276781;22;20019;-58
2022/07/20 01:55:09;;;;;;;23.95;14.98;;;;;;;;;;6299309;22;20011;-58
2022/07/20 01:57:36;;;;;;;27.33;13.50;;;;;;;;;;6293066;22;20023;-58
2022/07/20 02:00:05;;;;;;;28.15;14.85;;;;;;;;;;6291683;22;20011;-58
2022/07/20 02:02:31;;;;;;;26.10;15.23;;;;;;;;;;6281596;22;20502;-56
2022/07/20 02:04:58;;;;;;;28.42;14.52;;;;;;;;;;6294075;22;20015;-57
2022/07/20 02:07:24;;;;;;;31.50;15.40;;;;;;;;;;6294555;22;20011;-57
2022/07/20 02:09:51;;;;;;;25.55;15.63;;;;;;;;;;6290036;22;20015;-55
2022/07/20 02:12:19;;;;;;;31.35;15.02;;;;;;;;;;6295903;22;20049;-57
2022/07/20 02:14:48;;;;;;;30.50;15.67;;;;;;;;;;6293247;22;20027;-53
2022/07/20 02:17:14;;;;;;;38.05;14.07;;;;;;;;;;6295395;22;20026;-56
2022/07/20 02:19:41;;;;;;;23.05;14.20;;;;;;;;;;6292760;22;20453;-56
2022/07/20 02:22:07;;;;;;;21.23;13.85;;;;;;;;;;6303483;22;20015;-58
2022/07/20 02:24:34;;;;;;;22.42;15.10;;;;;;;;;;6280753;22;20015;-56
2022/07/20 02:27:01;;;;;;;29.27;15.30;;;;;;;;;;6285821;22;20468;-56
2022/07/20 02:29:27;;;;;;;23.30;14.73;;;;;;;;;;6293118;22;20015;-58
2022/07/20 02:31:55;;;;;;;27.67;14.73;;;;;;;;;;6298148;22;20383;-56
2022/07/20 02:34:22;;;;;;;24.52;14.57;;;;;;;;;;6284179;22;20331;-59
2022/07/20 02:36:49;;;;;;;23.58;13.95;;;;;;;;;;6260796;22;20016;-56
2022/07/20 02:39:15;;;;;;;21.92;13.43;;;;;;;;;;6291257;22;20018;-56
2022/07/20 02:41:42;;;;;;;23.63;16.13;;;;;;;;;;6289690;22;20516;-54
2022/07/20 02:44:08;;;;;;;26.38;14.57;;;;;;;;;;6300609;22;20012;-57
2022/07/20 02:46:35;;;;;;;21.35;13.65;;;;;;;;;;6287541;22;20022;-56
2022/07/20 02:49:03;;;;;;;21.42;14.18;;;;;;;;;;6286035;22;20049;-57
2022/07/20 02:51:29;;;;;;;23.27;14.80;;;;;;;;;;6303324;22;20023;-56
2022/07/20 02:53:56;;;;;;;24.65;14.60;;;;;;;;;;6290977;22;20012;-56
2022/07/20 02:56:22;;;;;;;23.08;13.82;;;;;;;;;;6302733;22;20012;-57
2022/07/20 02:58:49;;;;;;;16.88;13.38;;;;;;;;;;6288800;22;20614;-56
2022/07/20 03:01:15;;;;;;;20.00;13.07;;;;;;;;;;6295182;22;20011;-58
2022/07/20 03:03:42;;;;;;;19.55;13.82;;;;;;;;;;6286519;22;20167;-57
2022/07/20 03:06:10;;;;;;;21.80;13.10;;;;;;;;;;6302942;22;20098;-57
2022/07/20 03:08:37;;;;;;;22.02;12.52;;;;;;;;;;6298677;22;20247;-53
2022/07/20 03:11:03;;;;;;;31.38;13.35;;;;;;;;;;6301068;22;20018;-56
2022/07/20 03:13:30;;;;;;;18.27;13.52;;;;;;;;;;6297274;22;20450;-56
2022/07/20 03:15:56;;;;;;;20.20;12.68;;;;;;;;;;6292473;22;20015;-56
2022/07/20 03:18:23;;;;;;;22.38;13.93;;;;;;;;;;6295368;22;20031;-54
2022/07/20 03:20:49;;;;;;;17.05;12.68;;;;;;;;;;6293365;22;20015;-55
2022/07/20 03:23:17;;;;;;;20.90;13.63;;;;;;;;;;6296936;22;20485;-54
2022/07/20 03:25:44;;;;;;;18.95;12.50;;;;;;;;;;6295582;22;20075;-56
2022/07/20 03:28:10;;;;;;;17.50;12.88;;;;;;;;;;6293736;22;20015;-56
2022/07/20 03:30:37;;;;;;;17.20;13.00;;;;;;;;;;6287621;22;20252;-55
2022/07/20 03:33:03;;;;;;;17.02;11.73;;;;;;;;;;6299718;22;20015;-56
2022/07/20 03:35:30;;;;;;;20.42;12.85;;;;;;;;;;6291598;22;20095;-56
2022/07/20 03:37:57;;;;;;;18.33;12.55;;;;;;;;;;6296735;22;20019;-56
2022/07/20 03:40:24;;;;;;;24.70;13.13;;;;;;;;;;6286428;22;20022;-55
2022/07/20 03:42:51;;;;;;;14.02;12.40;;;;;;;;;;6287221;22;20039;-55
2022/07/20 03:45:18;;;;;;;17.65;12.15;;;;;;;;;;6290989;22;20022;-57
2022/07/20 03:47:44;;;;;;;20.02;12.25;;;;;;;;;;6299995;22;20071;-57
2022/07/20 03:50:11;;;;;;;25.88;13.45;;;;;;;;;;6283872;22;20026;-56
2022/07/20 03:52:37;;;;;;;21.70;12.75;;;;;;;;;;6272652;22;20019;-56
2022/07/20 03:55:04;;;;;;;19.20;12.45;;;;;;;;;;6295346;22;20015;-57
2022/07/20 03:57:32;;;;;;;19.08;13.60;;;;;;;;;;6288413;22;20079;-55
2022/07/20 03:59:59;;;;;;;22.27;13.10;;;;;;;;;;6297943;22;20021;-57
2022/07/20 04:02:25;;;;;;;22.75;12.98;;;;;;;;;;6255064;22;20504;-57
2022/07/20 04:04:52;;;;;;;22.05;13.25;;;;;;;;;;6243921;22;20115;-58
2022/07/20 04:07:19;;;;;;;17.83;13.88;;;;;;;;;;6266247;22;20015;-57
2022/07/20 04:09:46;;;;;;;25.73;13.60;;;;;;;;;;6268771;22;20026;-54
2022/07/20 04:12:15;;;;;;;21.13;12.88;;;;;;;;;;6266634;22;20045;-56
2022/07/20 04:14:43;;;;;;;15.00;10.80;;;;;;;;;;6271333;22;20388;-57
2022/07/20 04:17:09;;;;;;;19.38;11.25;;;;;;;;;;6277504;22;20017;-57
2022/07/20 04:19:36;;;;;;;20.70;12.07;;;;;;;;;;6260640;22;20045;-57
2022/07/20 04:22:03;;;;;;;16.67;12.18;;;;;;;;;;6275841;22;20016;-57
2022/07/20 04:24:30;;;;;;;19.63;11.50;;;;;;;;;;6268354;22;20817;-58
2022/07/20 04:26:58;;;;;;;15.85;12.20;;;;;;;;;;6271082;22;20018;-58
2022/07/20 04:29:25;;;;;;;16.75;11.88;;;;;;;;;;6268829;22;20475;-59
2022/07/20 04:31:53;;;;;;;18.48;11.65;;;;;;;;;;6270742;22;20012;-57
2022/07/20 04:34:20;;;;;;;14.70;11.05;;;;;;;;;;6272066;22;20015;-57
2022/07/20 04:36:46;;;;;;;17.60;12.25;;;;;;;;;;6266704;22;20019;-58
2022/07/20 04:39:13;;;;;;;18.73;12.68;;;;;;;;;;6270145;22;20332;-58
2022/07/20 04:41:40;;;;;;;16.17;12.25;;;;;;;;;;6267308;22;20019;-56
2022/07/20 04:44:07;;;;;;;16.38;13.02;;;;;;;;;;6272311;22;20054;-55
2022/07/20 04:46:34;;;;;;;24.02;13.32;;;;;;;;;;6268024;22;20095;-55
2022/07/20 04:49:02;;;;;;;22.45;13.00;;;;;;;;;;6266072;22;20380;-56
2022/07/20 04:51:29;;;;;;;24.30;14.65;;;;;;;;;;6260537;22;20011;-57
2022/07/20 04:53:55;;;;;;;15.23;12.52;;;;;;;;;;6274072;22;20106;-57
2022/07/20 04:56:22;;;;;;;16.15;12.27;;;;;;;;;;6270258;22;20015;-56
2022/07/20 04:58:52;;;;;;;17.67;12.50;;;;;;;;;;6273629;22;20011;-57
2022/07/20 05:01:19;;;;;;;21.30;12.68;;;;;;;;;;6268994;22;20071;-57
2022/07/20 05:03:45;;;;;;;20.02;11.48;;;;;;;;;;6268495;22;20068;-57
2022/07/20 05:06:13;;;;;;;17.42;12.30;;;;;;;;;;6267602;22;20132;-58
2022/07/20 05:08:40;;;;;;;13.20;10.27;;;;;;;;;;6274346;22;20019;-57
2022/07/20 05:11:06;;;;;;;18.45;11.05;;;;;;;;;;6264457;22;20034;-57
2022/07/20 05:13:34;;;;;;;11.85;10.32;;;;;;;;;;6271578;22;20019;-58
2022/07/20 05:16:00;;;;;;;13.85;10.80;;;;;;;;;;6260980;22;20065;-57
2022/07/20 05:18:28;;;;;;;13.93;10.65;;;;;;;;;;6273644;22;20023;-58
2022/07/20 05:20:55;;;;;;;15.15;8.80;;;;;;;;;;6271047;22;20042;-57
2022/07/20 05:23:22;;;;;;;11.73;8.82;;;;;;;;;;6270907;22;20015;-58
2022/07/20 05:25:49;;;;;;;12.48;7.90;;;;;;;;;;6267173;22;20419;-57
2022/07/20 05:28:18;;;;;;;10.98;8.15;;;;;;;;;;6270341;22;20031;-57
2022/07/20 05:30:45;;;;;;;13.30;8.33;;;;;;;;;;6267533;22;20046;-57
2022/07/20 05:33:11;;;;;;;9.30;7.22;;;;;;;;;;6269779;22;20019;-57
2022/07/20 05:35:38;;;;;;;10.15;8.07;;;;;;;;;;6261294;22;20021;-57
2022/07/20 05:38:04;;;;;;;12.13;8.40;;;;;;;;;;6273605;22;20837;-57
2022/07/20 05:40:33;;;;;;;11.43;8.75;;;;;;;;;;6265805;22;20007;-57
2022/07/20 05:43:00;;;;;;;10.40;8.80;;;;;;;;;;6276369;22;20022;-58
2022/07/20 05:45:27;;;;;;;15.77;9.07;;;;;;;;;;6269664;22;20712;-57
2022/07/20 05:47:54;;;;;;;12.05;8.82;;;;;;;;;;6270540;22;20022;-57
2022/07/20 05:50:21;;;;;;;16.30;8.57;;;;;;;;;;6265594;22;20090;-56
2022/07/20 05:52:47;;;;;;;11.27;8.35;;;;;;;;;;6269490;22;20026;-57
2022/07/20 05:55:15;;;;;;;10.90;8.32;;;;;;;;;;6268154;22;20025;-58
2022/07/20 05:57:43;;;;;;;10.20;7.22;;;;;;;;;;6272469;22;20080;-57
2022/07/20 06:00:10;;;;;;;15.57;8.50;;;;;;;;;;6263876;22;20049;-56
2022/07/20 06:02:37;;;;;;;12.35;7.80;;;;;;;;;;6272832;22;20106;-60
2022/07/20 06:05:06;;;;;;;;;;;;;;;;;;6265694;22;20022;-57
2022/07/20 06:07:36;;;;;;;11.15;6.93;;;;;;;;;;6270391;22;20217;-60
2022/07/20 06:10:06;;;;;;;11.75;7.18;;;;;;;;;;6271211;22;20228;-58
2022/07/20 06:12:40;;;;;;;9.82;7.28;;;;;;;;;;6258941;22;20390;-61
2022/07/20 06:15:08;;;;;;;15.77;7.60;;;;;;;;;;6272526;22;20443;-57
2022/07/20 06:17:35;;;;;;;10.93;7.20;;;;;;;;;;6260985;22;20077;-57
2022/07/20 06:20:04;;;;;;;9.40;7.35;;;;;;;;;;6274325;22;20491;-58
2022/07/20 06:22:30;;;;;;;10.30;7.25;;;;;;;;;;6273749;22;20011;-58
2022/07/20 06:24:57;;;;;;;12.25;7.45;;;;;;;;;;6265286;22;20397;-58
2022/07/20 06:27:24;;;;;;;15.68;7.22;;;;;;;;;;6273232;22;20015;-57
2022/07/20 06:29:51;;;;;;;10.77;7.38;;;;;;;;;;6261397;22;20254;-56
2022/07/20 06:32:19;;;;;;;12.82;7.30;;;;;;;;;;6269974;22;20068;-57
2022/07/20 06:34:46;;;;;;;12.52;7.60;;;;;;;;;;6261441;22;20030;-58
2022/07/20 06:37:15;;;;;;;10.75;6.97;;;;;;;;;;6270432;22;20524;-56
2022/07/20 06:39:45;;;;;;;17.02;7.72;;;;;;;;;;6272830;22;20015;-57
2022/07/20 06:42:11;;;;;;;8.63;6.43;;;;;;;;;;6265710;22;20019;-57
2022/07/20 06:44:38;;;;;;;11.68;7.25;;;;;;;;;;6272782;22;20037;-57
2022/07/20 06:47:05;;;;;;;10.80;6.13;;;;;;;;;;6268713;22;20026;-57
2022/07/20 06:49:33;;;;;;;9.23;6.97;;;;;;;;;;6271372;22;20039;-57
2022/07/20 06:52:00;;;;;;;10.70;6.88;;;;;;;;;;6268172;22;20461;-56
2022/07/20 06:54:28;;;;;;;10.63;5.93;;;;;;;;;;6272045;22;20012;-58
2022/07/20 06:56:55;;;;;;;10.05;6.82;;;;;;;;;;6260612;22;20602;-57
2022/07/20 06:59:22;;;;;;;9.60;5.97;;;;;;;;;;6270963;22;20311;-57
2022/07/20 07:01:50;;;;;;;8.00;6.18;;;;;;;;;;6268696;22;20523;-56
2022/07/20 07:04:17;;;;;;;8.90;6.25;;;;;;;;;;6264518;22;20015;-57
2022/07/20 07:06:47;;;;;;;11.63;6.15;;;;;;;;;;6271121;22;20073;-59
2022/07/20 07:09:18;;;;;;;9.65;6.60;;;;;;;;;;6264926;22;20169;-57
2022/07/20 07:11:45;;;;;;;13.52;6.57;;;;;;;;;;6265578;22;20022;-57
2022/07/20 07:14:13;;;;;;;14.43;6.97;;;;;;;;;;6261696;22;20014;-59
2022/07/20 07:16:39;;;;;;;12.30;7.68;;;;;;;;;;6264358;22;20376;-59
2022/07/20 07:19:07;;;;;;;9.00;6.13;;;;;;;;;;6265013;22;20218;-59
2022/07/20 07:21:34;;;;;;;8.85;6.60;;;;;;;;;;6266215;22;20015;-58
2022/07/20 07:24:02;;;;;;;10.60;7.25;;;;;;;;;;6275478;22;20015;-58
2022/07/20 07:26:29;;;;;;;15.65;7.40;;;;;;;;;;6265892;22;20084;-59
2022/07/20 07:28:55;;;;;;;9.93;7.00;;;;;;;;;;6274423;22;20015;-57
2022/07/20 07:31:22;;;;;;;11.10;7.13;;;;;;;;;;6267433;22;20018;-58
2022/07/20 07:33:49;;;;;;;12.15;7.20;;;;;;;;;;6274720;22;20012;-59
2022/07/20 07:36:15;;;;;;;8.70;6.20;;;;;;;;;;6259536;22;20015;-57
2022/07/20 07:38:42;;;;;;;10.48;6.88;;;;;;;;;;6274968;22;20167;-58
2022/07/20 07:41:10;;;;;;;9.07;7.18;;;;;;;;;;6266757;22;20023;-58
2022/07/20 07:43:37;;;;;;;15.57;7.00;;;;;;;;;;6264593;22;20034;-59
2022/07/20 07:46:04;;;;;;;9.38;6.40;;;;;;;;;;6248073;22;20448;-58
2022/07/20 07:48:31;;;;;;;8.93;5.97;;;;;;;;;;6290386;22;20017;-57
2022/07/20 07:50:57;;;;;;;9.88;7.18;;;;;;;;;;6285192;22;20011;-58
2022/07/20 07:53:24;;;;;;;11.90;7.05;;;;;;;;;;6287596;22;20038;-58
2022/07/20 07:55:50;;;;;;;9.57;6.63;;;;;;;;;;6279662;22;20433;-58
2022/07/20 07:58:18;;;;;;;11.20;6.60;;;;;;;;;;6302733;22;20027;-58
2022/07/20 08:00:45;;;;;;;12.60;7.05;;;;;;;;;;6283931;22;20518;-58
2022/07/20 08:03:11;;;;;;;11.18;7.78;;;;;;;;;;6293557;22;20069;-60
2022/07/20 08:05:38;;;;;;;9.05;7.40;;;;;;;;;;6281985;22;20015;-58
2022/07/20 08:08:08;;;;;;;9.38;6.72;;;;;;;;;;6302095;22;20140;-58
2022/07/20 08:10:35;;;;;;;11.48;6.70;;;;;;;;;;6290091;22;20011;-58
2022/07/20 08:13:03;;;;;;;9.23;7.13;;;;;;;;;;6300126;22;20018;-58
2022/07/20 08:15:31;;;;;;;13.98;8.35;;;;;;;;;;6288048;22;20417;-59
2022/07/20 08:17:57;;;;;;;10.32;6.90;;;;;;;;;;6290187;22;20065;-58
2022/07/20 08:20:24;;;;;;;8.90;8.00;;;;;;;;;;6290332;22;20030;-57
2022/07/20 08:22:51;;;;;;;12.65;8.43;;;;;;;;;;6284010;22;20019;-60
2022/07/20 08:25:18;;;;;;;11.25;8.02;;;;;;;;;;6297885;22;20015;-57
2022/07/20 08:27:45;;;;;;;11.55;7.85;;;;;;;;;;6283143;22;20093;-57
2022/07/20 08:30:12;;;;;;;11.07;8.38;;;;;;;;;;6288639;22;20023;-58
2022/07/20 08:32:40;;;;;;;8.82;7.78;;;;;;;;;;6286852;22;20011;-57
2022/07/20 08:35:07;;;;;;;14.13;7.65;;;;;;;;;;6294254;22;20018;-57
2022/07/20 08:37:34;;;;;;;15.10;7.47;;;;;;;;;;6287398;22;20019;-58
2022/07/20 08:40:00;;;;;;;10.80;7.35;;;;;;;;;;6302194;22;20090;-58
2022/07/20 08:42:27;;;;;;;11.10;8.82;;;;;;;;;;6292365;22;20022;-58
2022/07/20 08:44:53;;;;;;;11.35;7.85;;;;;;;;;;6290918;22;20309;-58
2022/07/20 08:47:21;;;;;;;11.52;7.70;;;;;;;;;;6296269;22;20018;-58
2022/07/20 08:49:50;;;;;;;12.75;7.85;;;;;;;;;;6277938;22;20188;-59
2022/07/20 08:52:18;;;;;;;12.23;7.07;;;;;;;;;;6288246;22;20089;-58
2022/07/20 08:54:45;;;;;;;12.75;7.72;;;;;;;;;;6285305;22;20022;-58
2022/07/20 08:57:12;;;;;;;7.97;7.10;;;;;;;;;;6283692;22;20029;-58
2022/07/20 08:59:38;;;;;;;10.80;7.82;;;;;;;;;;6296610;22;20019;-57
2022/07/20 09:02:07;;;;;;;13.57;7.82;;;;;;;;;;6284052;22;20019;-58
2022/07/20 09:04:49;;;;;;;10.25;7.50;;;;;;;;;;6296368;22;20420;-57
2022/07/20 09:07:17;;;;;;;11.95;8.50;;;;;;;;;;6296829;22;20011;-58
2022/07/20 09:09:44;;;;;;;10.23;8.13;;;;;;;;;;6290319;22;20011;-58
2022/07/20 09:12:10;;;;;;;10.40;7.75;;;;;;;;;;6287541;22;20015;-59
2022/07/20 09:14:40;;;;;;;10.90;7.30;;;;;;;;;;6296145;22;20082;-58
2022/07/20 09:17:21;;;;;;;10.60;7.00;;;;;;;;;;6292956;22;20012;-58
2022/07/20 09:19:54;;;;;;;11.15;7.45;;;;;;;;;;6290010;22;20030;-58
2022/07/20 09:22:29;;;;;;;14.70;8.18;;;;;;;;;;6301301;22;20011;-58
2022/07/20 09:25:05;;;;;;;10.95;7.03;;;;;;;;;;6286232;22;20019;-58
2022/07/20 09:27:34;;;;;;;9.68;7.22;;;;;;;;;;6292456;22;20063;-58
2022/07/20 09:30:09;;;;;;;10.40;7.03;;;;;;;;;;6295389;22;20022;-57
2022/07/20 09:32:50;;;;;;;9.70;6.70;;;;;;;;;;6283435;22;20291;-57
2022/07/20 09:35:16;;;;;;;11.63;7.85;;;;;;;;;;6298675;22;20496;-59
2022/07/20 09:37:44;;;;;;;13.48;7.68;;;;;;;;;;6282926;22;20026;-57
2022/07/20 09:40:11;;;;;;;7.32;6.57;;;;;;;;;;6299776;22;20027;-58
2022/07/20 09:42:38;;;;;;;10.15;7.45;;;;;;;;;;6293847;22;20045;-57
2022/07/20 09:45:18;;;;;;;8.65;6.88;;;;;;;;;;6289369;22;20011;-58
2022/07/20 09:48:00;;;;;;;9.18;7.15;;;;;;;;;;6296823;22;20038;-58
2022/07/20 09:50:30;;;;;;;7.82;7.03;;;;;;;;;;6292303;22;20011;-57
2022/07/20 09:52:59;;;;;;;10.45;8.43;;;;;;;;;;6289116;22;20011;-58
2022/07/20 09:55:26;;;;;;;10.70;6.65;;;;;;;;;;6283983;22;20601;-58
2022/07/20 09:57:53;;;;;;;10.82;7.45;;;;;;;;;;6300204;22;20507;-54
2022/07/20 10:00:20;;;;;;;10.15;7.53;;;;;;;;;;6290428;22;20033;-58
2022/07/20 10:02:47;;;;;;;12.50;8.07;;;;;;;;;;6295091;22;20035;-58
2022/07/20 10:05:14;;;;;;;11.35;7.20;;;;;;;;;;6291443;22;20472;-58
2022/07/20 10:07:42;;;;;;;10.70;6.47;;;;;;;;;;6299719;22;20344;-58
2022/07/20 10:10:10;;;;;;;10.75;8.27;;;;;;;;;;6289869;22;20489;-58
2022/07/20 10:12:37;;;;;;;8.82;6.78;;;;;;;;;;6291174;22;20314;-56
2022/07/20 10:15:05;;;;;;;10.73;6.90;;;;;;;;;;6291592;22;20022;-58
2022/07/20 10:17:33;;;;;;;11.95;7.70;;;;;;;;;;6299223;22;20011;-58
2022/07/20 10:20:00;;;;;;;9.85;6.97;;;;;;;;;;6289789;22;20045;-58
2022/07/20 10:22:31;;;;;;;6.88;6.15;;;;;;;;;;6301844;22;20075;-58
2022/07/20 10:25:17;;;;;;;8.75;7.70;;;;;;;;;;6296194;22;20026;-58
2022/07/20 10:27:44;;;;;;;9.70;7.05;;;;;;;;;;6294080;22;20041;-58
2022/07/20 10:30:18;;;;;;;9.23;7.07;;;;;;;;;;6260278;22;20015;-58
2022/07/20 10:32:52;;;;;;;9.77;7.95;;;;;;;;;;6299055;22;20023;-59
2022/07/20 10:35:26;;;;;;;13.25;8.55;;;;;;;;;;6286829;22;20571;-58
2022/07/20 10:37:53;;;;;;;9.27;7.88;;;;;;;;;;6285555;22;20011;-57
2022/07/20 10:40:22;;;;;;;11.38;8.02;;;;;;;;;;6289920;22;20416;-57
2022/07/20 10:42:50;;;;;;;10.80;8.18;;;;;;;;;;6293554;22;20011;-58
2022/07/20 10:45:27;;;;;;;10.95;7.57;;;;;;;;;;6269934;22;20504;-57
2022/07/20 10:47:55;;;;;;;9.43;7.25;;;;;;;;;;6294985;22;20018;-57
2022/07/20 10:50:22;;;;;;;10.43;7.68;;;;;;;;;;6291954;22;20011;-57
2022/07/20 10:52:49;;;;;;;10.68;6.95;;;;;;;;;;6287246;22;20018;-57
2022/07/20 10:55:37;;;;;;;11.27;7.53;;;;;;;;;;6286075;22;20015;-57
2022/07/20 10:58:06;;;;;;;8.75;7.90;;;;;;;;;;6275737;22;20098;-57
2022/07/20 11:00:37;;;;;;;10.57;8.20;;;;;;;;;;6295849;22;20019;-59
2022/07/20 11:03:05;;;;;;;12.02;7.28;;;;;;;;;;6293346;22;20011;-60
2022/07/20 11:05:33;;;;;;;7.63;6.68;;;;;;;;;;6288575;22;20386;-58
2022/07/20 11:08:05;;;;;;;9.95;7.65;;;;;;;;;;6287976;22;20113;-58
2022/07/20 11:10:31;;;;;;;9.38;8.07;;;;;;;;;;6293180;22;20011;-58
2022/07/20 11:13:00;;;;;;;10.00;7.93;;;;;;;;;;6286090;22;20043;-59
2022/07/20 11:15:38;;;;;;;9.25;8.35;;;;;;;;;;6298187;22;20011;-59
2022/07/20 11:18:06;;;;;;;10.25;8.73;;;;;;;;;;6293886;22;20011;-57
2022/07/20 11:20:33;;;;;;;10.80;8.50;;;;;;;;;;6297143;22;20018;-55
2022/07/20 11:23:01;;;;;;;8.57;7.63;;;;;;;;;;6296844;22;20013;-56
2022/07/20 11:25:44;;;;;;;10.90;8.07;;;;;;;;;;6295998;22;20074;-57
2022/07/20 11:28:12;;;;;;;11.57;8.15;;;;;;;;;;6293773;22;20074;-56
2022/07/20 11:30:42;;;;;;;10.95;7.60;;;;;;;;;;6292975;22;20011;-55
2022/07/20 11:33:09;;;;;;;9.43;8.52;;;;;;;;;;6296152;22;20015;-58
2022/07/20 11:35:38;;;;;;;9.30;7.63;;;;;;;;;;6292847;22;20012;-58
2022/07/20 11:38:04;;;;;;;10.02;9.02;;;;;;;;;;6294127;22;20122;-59
2022/07/20 11:40:31;;;;;;;10.50;8.35;;;;;;;;;;6288337;22;20503;-58
2022/07/20 11:43:06;;;;;;;9.50;8.15;;;;;;;;;;6281533;22;20023;-57
2022/07/20 11:45:33;;;;;;;14.45;8.50;;;;;;;;;;6276873;22;20086;-56
2022/07/20 11:48:03;;;;;;;11.48;8.35;;;;;;;;;;6299845;22;20019;-56
2022/07/20 11:50:31;;;;;;;12.27;8.30;;;;;;;;;;6288517;22;20016;-56
2022/07/20 11:53:00;;;;;;;10.60;8.13;;;;;;;;;;6294888;22;20075;-57
2022/07/20 11:55:34;;;;;;;10.18;7.85;;;;;;;;;;6287176;22;20171;-58
2022/07/20 11:58:01;;;;;;;9.75;7.97;;;;;;;;;;6285432;22;20030;-57
2022/07/20 12:00:27;;;;;;;8.88;7.97;;;;;;;;;;6288224;22;20071;-58
2022/07/20 12:02:54;;;;;;;10.60;8.32;;;;;;;;;;6260409;22;20015;-58
2022/07/20 12:05:26;;;;;;;10.48;8.20;;;;;;;;;;6295348;22;20015;-57
2022/07/20 12:08:11;;;;;;;8.02;7.18;;;;;;;;;;6292613;22;20080;-57
2022/07/20 12:10:37;;;;;;;10.13;7.40;;;;;;;;;;6282907;22;20211;-58
2022/07/20 12:13:04;;;;;;;11.98;8.25;;;;;;;;;;6289402;22;20102;-58
2022/07/20 12:15:31;;;;;;;13.10;8.60;;;;;;;;;;6295712;22;20102;-58
2022/07/20 12:17:59;;;;;;;10.70;7.95;;;;;;;;;;6294866;22;20015;-57
2022/07/20 12:20:27;;;;;;;10.13;8.13;;;;;;;;;;6294780;22;20015;-57
2022/07/20 12:22:55;;;;;;;9.93;7.63;;;;;;;;;;6292076;22;20015;-56
2022/07/20 12:25:22;;;;;;;8.85;7.07;;;;;;;;;;6297831;22;20041;-57
2022/07/20 12:27:49;;;;;;;9.27;7.45;;;;;;;;;;6288372;22;20023;-57
2022/07/20 12:30:34;;;;;;;10.10;7.90;;;;;;;;;;6297603;22;20019;-57
2022/07/20 12:33:08;;;;;;;9.85;7.07;;;;;;;;;;6276519;22;20075;-57
2022/07/20 12:35:36;;;;;;;8.75;7.28;;;;;;;;;;6283899;22;20119;-58
2022/07/20 12:38:05;;;;;;;13.82;8.45;;;;;;;;;;6283344;22;20012;-58
2022/07/20 12:40:33;;;;;;;10.32;7.70;;;;;;;;;;6298399;22;20046;-58
2022/07/20 12:43:00;;;;;;;10.00;7.18;;;;;;;;;;6295557;22;20067;-58
2022/07/20 12:45:27;;;;;;;10.43;7.85;;;;;;;;;;6291449;22;20015;-57
2022/07/20 12:47:53;;;;;;;11.80;7.57;;;;;;;;;;6298810;22;20019;-57
2022/07/20 12:50:20;;;;;;;11.57;8.55;;;;;;;;;;6281058;22;20023;-58
2022/07/20 12:52:48;;;;;;;9.77;7.78;;;;;;;;;;6298531;22;20015;-57
2022/07/20 12:55:15;;;;;;;8.60;7.53;;;;;;;;;;6292505;22;20015;-57
2022/07/20 12:57:41;;;;;;;13.00;8.23;;;;;;;;;;6295499;22;20026;-56
2022/07/20 13:00:08;;;;;;;11.85;7.32;;;;;;;;;;6285209;22;20061;-57
2022/07/20 13:02:35;;;;;;;12.38;7.90;;;;;;;;;;6285443;22;20098;-55
2022/07/20 13:05:01;;;;;;;8.55;7.65;;;;;;;;;;6276071;22;20464;-58
2022/07/20 13:07:28;;;;;;;10.15;7.72;;;;;;;;;;6258958;22;20353;-58
2022/07/20 13:09:57;;;;;;;11.40;8.18;;;;;;;;;;6273073;22;20021;-58
2022/07/20 13:12:25;;;;;;;14.07;8.60;;;;;;;;;;6299488;22;20019;-58
2022/07/20 13:14:52;;;;;;;9.70;7.38;;;;;;;;;;6278923;22;20023;-57
2022/07/20 13:17:18;;;;;;;12.52;7.45;;;;;;;;;;6294565;22;20749;-58
2022/07/20 13:19:45;;;;;;;13.32;7.80;;;;;;;;;;6288030;22;20011;-56
2022/07/20 13:22:12;;;;;;;11.55;7.72;;;;;;;;;;6289666;22;20023;-58
2022/07/20 13:24:39;;;;;;;11.77;8.00;;;;;;;;;;6291620;22;20019;-58
2022/07/20 13:27:07;;;;;;;11.55;8.60;;;;;;;;;;6289987;22;20015;-58
2022/07/20 13:29:34;;;;;;;9.15;7.25;;;;;;;;;;6297885;22;20015;-56
2022/07/20 13:32:01;;;;;;;11.00;7.95;;;;;;;;;;6295064;22;20015;-58
2022/07/20 13:34:27;;;;;;;10.90;8.45;;;;;;;;;;6297132;22;20011;-55
2022/07/20 13:36:53;;;;;;;8.57;7.70;;;;;;;;;;6290358;22;20178;-57
2022/07/20 13:39:20;;;;;;;8.70;7.50;;;;;;;;;;6299949;22;20015;-58
2022/07/20 13:41:47;;;;;;;10.88;8.52;;;;;;;;;;6288109;22;20429;-57
2022/07/20 13:44:15;;;;;;;11.07;8.02;;;;;;;;;;6293161;22;20015;-57
2022/07/20 13:46:46;;;;;;;9.45;8.55;;;;;;;;;;6298327;22;20019;-57
2022/07/20 13:49:12;;;;;;;8.55;7.70;;;;;;;;;;6286871;22;20488;-58
2022/07/20 13:51:39;;;;;;;9.10;8.02;;;;;;;;;;6279663;22;20098;-58
2022/07/20 13:54:05;;;;;;;11.95;7.88;;;;;;;;;;6296681;22;20011;-58
2022/07/20 13:56:32;;;;;;;12.23;7.57;;;;;;;;;;6286292;22;20011;-59
2022/07/20 13:58:59;;;;;;;8.13;7.30;;;;;;;;;;6295392;22;20019;-58
2022/07/20 14:01:27;;;;;;;10.55;7.68;;;;;;;;;;6281440;22;20447;-58
2022/07/20 14:03:53;;;;;;;8.65;7.30;;;;;;;;;;6300325;22;20314;-57
2022/07/20 14:06:21;;;;;;;12.10;7.53;;;;;;;;;;6289341;22;20169;-57
2022/07/20 14:08:48;;;;;;;9.93;7.80;;;;;;;;;;6294148;22;20042;-57
2022/07/20 14:11:14;;;;;;;10.85;7.82;;;;;;;;;;6290612;22;20011;-58
2022/07/20 14:13:41;;;;;;;7.50;6.80;;;;;;;;;;6279449;22;20524;-55
2022/07/20 14:16:07;;;;;;;10.10;7.65;;;;;;;;;;6283963;22;20023;-59
2022/07/20 14:18:35;;;;;;;7.28;6.40;;;;;;;;;;6276043;22;20365;-58
2022/07/20 14:21:03;;;;;;;9.98;6.68;;;;;;;;;;6295519;22;20019;-57
2022/07/20 14:23:30;;;;;;;14.82;6.78;;;;;;;;;;6292661;22;20015;-57
2022/07/20 14:25:56;;;;;;;9.13;6.40;;;;;;;;;;6294840;22;20011;-57
2022/07/20 14:28:22;;;;;;;11.98;7.13;;;;;;;;;;6294698;22;20065;-57
2022/07/20 14:30:50;;;;;;;10.80;7.25;;;;;;;;;;6291901;22;20019;-58
2022/07/20 14:33:17;;;;;;;10.15;7.00;;;;;;;;;;6298325;22;20079;-58
2022/07/20 14:35:46;;;;;;;8.55;6.35;;;;;;;;;;6254463;22;20553;-58